Meedville, Mississippi
Current Conditions -  °F | °C
As of 12:53 PM on Monday 20 Oct 2014 (Local Time) from KMCB Reporting Station
Clear Clear  
Wind Chill: 73°   Ceiling: Unl
Heat Index: 73°   Visibility: 10mi
Dew Point: 48°   Wind: 5mph
Humidity: 41%   Direction: 360°N
Pressure: 30.06"   Gusts: NA
Location:  31.4031°N, 90.8369°W
Report Text: KMCB 201753Z AUTO 36004KT 10SM CLR 23/09 A3006 RMK AO2 SLP177 T02280089 10228 20089 58010
Loading
Personal Weather Stations






























Interactive Weather Map
Tropical Storm Tracking
New forecast layout! Learn more

10-Day Weather Forecast

Advertisements
Track Severe Weather on mobile